Time;durP1;ratioP1;P1;durP2;ratioP2;P2;SDS_P1;SDS_P2;PMS_P1;PMS_P2;Temp;Humidity;BMP_temperature;BMP_pressure;BME280_temperature;BME280_humidity;BME280_pressure;Samples;Min_cycle;Max_cycle;Signal;HPM_P1;HPM_P2
2021/04/14 00:01:12;;;;;;;13.47;7.70;;;;;;;11.47;94.99;94550.16;5073428;28;20463;-78
2021/04/14 00:03:39;;;;;;;9.37;7.03;;;;;;;11.47;94.73;94551.00;5073229;28;20494;-78
2021/04/14 00:06:07;;;;;;;8.30;6.40;;;;;;;11.47;94.54;94539.66;5073307;28;20452;-78
2021/04/14 00:08:33;;;;;;;8.37;6.60;;;;;;;11.44;94.07;94545.19;5073431;28;20445;-78
2021/04/14 00:11:00;;;;;;;8.17;6.63;;;;;;;11.43;94.49;94547.00;5073178;28;20454;-77
2021/04/14 00:13:32;;;;;;;7.87;6.23;;;;;;;11.45;94.10;94541.59;5073123;28;20964;-78
2021/04/14 00:15:59;;;;;;;10.03;7.20;;;;;;;11.44;95.00;94539.94;5073745;28;20453;-78
2021/04/14 00:18:27;;;;;;;7.33;6.63;;;;;;;11.49;94.06;94543.78;5073170;28;20452;-78
2021/04/14 00:20:54;;;;;;;13.73;8.60;;;;;;;11.51;94.47;94541.00;5054003;28;20480;-77
2021/04/14 00:23:22;;;;;;;11.47;8.33;;;;;;;11.51;94.43;94530.50;5072891;28;20455;-78
2021/04/14 00:25:51;;;;;;;7.90;7.00;;;;;;;11.52;94.59;94528.69;5073385;28;20480;-78
2021/04/14 00:28:21;;;;;;;8.70;6.70;;;;;;;11.51;94.83;94532.31;5073187;28;20920;-78
2021/04/14 00:30:49;;;;;;;8.13;6.17;;;;;;;11.50;94.56;94531.47;5072984;28;20922;-78
2021/04/14 00:33:16;;;;;;;8.70;6.33;;;;;;;11.51;94.08;94533.13;5073266;28;20480;-78
2021/04/14 00:35:42;;;;;;;10.70;6.80;;;;;;;11.49;93.64;94533.28;5072972;28;21222;-78
2021/04/14 00:38:12;;;;;;;9.97;7.40;;;;;;;11.48;93.38;94536.06;5073489;28;20467;-78
2021/04/14 00:40:43;;;;;;;17.87;7.10;;;;;;;11.47;94.36;94540.47;5073128;28;20539;-77
2021/04/14 00:43:13;;;;;;;9.60;6.57;;;;;;;11.45;95.25;94552.09;5072585;28;20452;-78
2021/04/14 00:45:39;;;;;;;8.90;7.43;;;;;;;11.41;95.17;94556.00;5072905;28;21015;-78
2021/04/14 00:48:06;;;;;;;13.13;8.37;;;;;;;11.35;95.82;94557.41;5072587;28;20471;-78
2021/04/14 00:50:35;;;;;;;14.13;8.90;;;;;;;11.33;95.22;94558.53;5070711;28;20448;-77
2021/04/14 00:53:02;;;;;;;15.37;10.10;;;;;;;11.28;95.92;94555.50;5072907;28;20484;-78
2021/04/14 00:55:31;;;;;;;14.50;8.97;;;;;;;11.28;96.66;94551.06;5054259;28;20444;-78
2021/04/14 00:57:57;;;;;;;10.73;7.60;;;;;;;11.13;95.52;94550.69;5072661;28;20451;-78
2021/04/14 01:00:31;;;;;;;7.47;6.67;;;;;;;11.17;95.05;94554.66;5073040;28;20511;-78
2021/04/14 01:02:58;;;;;;;4.17;3.77;;;;;;;11.14;94.91;94560.22;5072567;28;20844;-77
2021/04/14 01:05:27;;;;;;;3.63;3.33;;;;;;;11.06;94.42;94567.16;5072774;28;20958;-77
2021/04/14 01:07:53;;;;;;;3.77;3.40;;;;;;;11.00;94.54;94568.53;5072843;28;20470;-78
2021/04/14 01:10:20;;;;;;;3.70;3.13;;;;;;;10.95;95.41;94575.16;5072468;28;20518;-78
2021/04/14 01:12:48;;;;;;;2.90;2.70;;;;;;;10.92;94.85;94581.53;5072517;28;20993;-78
2021/04/14 01:15:27;;;;;;;3.07;2.77;;;;;;;10.79;95.64;94581.81;5072541;28;20443;-78
2021/04/14 01:17:53;;;;;;;4.20;2.57;;;;;;;10.74;95.31;94589.28;5072401;28;20458;-78
2021/04/14 01:20:20;;;;;;;4.60;2.90;;;;;;;10.59;97.04;94580.16;5072952;28;20454;-78
2021/04/14 01:22:47;;;;;;;5.60;3.00;;;;;;;10.59;96.56;94576.69;5072624;28;20441;-77
2021/04/14 01:25:19;;;;;;;6.03;3.60;;;;;;;10.45;96.87;94570.91;5072933;28;20457;-77
2021/04/14 01:27:45;;;;;;;2.70;1.90;;;;;;;10.26;96.62;94560.38;5072766;28;20461;-78
2021/04/14 01:30:15;;;;;;;3.30;2.40;;;;;;;10.10;96.25;94567.91;5072606;28;20454;-78
2021/04/14 01:32:41;;;;;;;2.23;2.03;;;;;;;9.89;97.05;94581.13;5076140;28;20449;-78
2021/04/14 01:35:09;;;;;;;2.10;1.90;;;;;;;9.77;96.73;94580.38;5074181;28;20438;-77
2021/04/14 01:37:35;;;;;;;6.80;3.20;;;;;;;9.73;98.52;94589.47;5076463;28;20476;-77
2021/04/14 01:40:04;;;;;;;2.90;2.20;;;;;;;9.72;98.61;94589.59;5076244;28;20445;-77
2021/04/14 01:42:30;;;;;;;6.10;1.80;;;;;;;9.63;98.54;94596.47;5076019;28;20450;-78
2021/04/14 01:44:56;;;;;;;1.97;1.87;;;;;;;9.66;98.81;94598.81;5076280;28;20492;-77
2021/04/14 01:47:23;;;;;;;2.07;1.87;;;;;;;9.65;98.42;94593.72;5076438;28;20442;-78
2021/04/14 01:49:49;;;;;;;1.80;1.70;;;;;;;9.80;99.13;94598.44;5076022;28;20455;-78
2021/04/14 01:52:15;;;;;;;2.07;1.87;;;;;;;9.89;98.65;94596.84;5075714;28;20440;-78
2021/04/14 01:54:42;;;;;;;5.10;2.30;;;;;;;10.01;98.51;94597.56;5056946;28;20485;-78
2021/04/14 01:57:09;;;;;;;2.13;1.93;;;;;;;10.10;97.71;94600.19;5076064;28;20446;-78
2021/04/14 01:59:36;;;;;;;5.20;1.73;;;;;;;10.13;97.97;94584.22;5075926;28;20934;-77
2021/04/14 02:02:02;;;;;;;1.80;1.70;;;;;;;10.20;97.23;94580.13;5075795;28;20442;-78
2021/04/14 02:04:28;;;;;;;1.40;1.30;;;;;;;10.22;95.35;94572.13;5075912;28;20446;-78
2021/04/14 02:06:55;;;;;;;1.97;1.80;;;;;;;10.24;94.26;94564.94;5075733;28;20499;-77
2021/04/14 02:09:21;;;;;;;1.93;1.73;;;;;;;9.87;94.39;94557.66;5075360;28;20439;-78
2021/04/14 02:11:47;;;;;;;4.00;1.60;;;;;;;9.91;94.62;94566.09;5075822;28;20462;-78
2021/04/14 02:14:14;;;;;;;2.03;1.73;;;;;;;10.06;95.33;94559.50;5075770;28;21057;-77
2021/04/14 02:16:41;;;;;;;2.23;1.90;;;;;;;10.13;95.67;94558.00;5075532;28;20446;-77
2021/04/14 02:19:08;;;;;;;1.67;1.57;;;;;;;10.09;94.87;94556.59;5075045;28;20778;-78
2021/04/14 02:21:34;;;;;;;6.20;1.90;;;;;;;10.04;95.60;94552.72;5075553;28;20450;-78
2021/04/14 02:24:01;;;;;;;1.70;1.60;;;;;;;9.81;96.13;94549.50;5075243;28;20455;-78
2021/04/14 02:26:28;;;;;;;2.47;1.93;;;;;;;9.65;97.48;94550.00;5075733;28;20445;-78
2021/04/14 02:28:55;;;;;;;2.03;1.93;;;;;;;9.75;96.99;94544.78;5075282;28;20953;-78
2021/04/14 02:31:30;;;;;;;2.90;2.03;;;;;;;9.81;96.27;94550.31;5075715;28;20585;-78
2021/04/14 02:33:58;;;;;;;1.67;1.47;;;;;;;9.61;93.72;94538.16;5075019;28;20491;-78
2021/04/14 02:36:25;;;;;;;5.80;2.00;;;;;;;9.62;94.72;94535.41;5074838;28;20479;-78
2021/04/14 02:38:52;;;;;;;1.57;1.47;;;;;;;9.70;93.51;94533.88;5074841;28;20885;-78
2021/04/14 02:41:18;;;;;;;2.23;2.03;;;;;;;9.70;92.71;94539.97;5074997;28;20453;-78
2021/04/14 02:43:45;;;;;;;8.33;2.57;;;;;;;9.65;92.13;94531.69;5073745;28;20479;-77
2021/04/14 02:46:11;;;;;;;4.77;4.33;;;;;;;9.70;92.57;94533.88;5074914;28;20449;-78
2021/04/14 02:48:38;;;;;;;22.13;10.97;;;;;;;9.68;91.47;94536.66;5074881;28;20449;-78
2021/04/14 02:51:05;;;;;;;19.87;10.50;;;;;;;9.73;91.13;94538.84;5074349;28;20446;-78
2021/04/14 02:53:31;;;;;;;9.50;6.70;;;;;;;9.81;92.39;94536.38;5075058;28;20490;-78
2021/04/14 02:55:58;;;;;;;3.03;2.77;;;;;;;9.89;92.75;94533.94;5074734;28;20446;-77
2021/04/14 02:58:24;;;;;;;2.97;2.67;;;;;;;9.92;93.19;94531.06;5074233;28;20447;-78
2021/04/14 03:00:50;;;;;;;3.60;3.13;;;;;;;9.95;93.74;94533.41;5074447;28;20503;-78
2021/04/14 03:03:17;;;;;;;4.20;2.97;;;;;;;9.97;94.29;94543.75;5072525;28;20441;-78
2021/04/14 03:05:44;;;;;;;7.17;3.73;;;;;;;10.00;94.18;94535.63;5055760;28;20449;-78
2021/04/14 03:08:11;;;;;;;5.07;2.97;;;;;;;9.90;94.29;94530.38;5074802;28;20524;-78
2021/04/14 03:10:38;;;;;;;9.83;3.50;;;;;;;9.79;94.54;94527.84;5055918;28;20831;-78
2021/04/14 03:13:05;;;;;;;12.00;6.90;;;;;;;9.76;95.85;94534.19;5073899;28;20486;-78
2021/04/14 03:15:34;;;;;;;8.13;4.57;;;;;;;9.75;95.45;94524.66;5074317;28;20451;-78
2021/04/14 03:18:01;;;;;;;3.00;2.70;;;;;;;9.69;94.70;94527.81;5074141;28;20874;-78
2021/04/14 03:20:27;;;;;;;4.73;3.67;;;;;;;9.73;94.63;94529.22;5074452;28;20445;-78
2021/04/14 03:22:56;;;;;;;3.17;2.97;;;;;;;9.76;94.70;94526.31;5074438;28;20442;-78
2021/04/14 03:25:26;;;;;;;5.40;4.20;;;;;;;9.81;94.01;94526.75;5074132;28;20805;-78
2021/04/14 03:27:53;;;;;;;3.60;3.37;;;;;;;9.79;93.53;94533.06;5074200;28;20500;-77
2021/04/14 03:30:20;;;;;;;4.13;3.20;;;;;;;9.82;94.00;94528.41;5073846;28;20454;-78
2021/04/14 03:32:46;;;;;;;3.53;2.70;;;;;;;9.76;94.02;94523.69;5073702;28;20446;-78
2021/04/14 03:35:14;;;;;;;4.30;3.90;;;;;;;9.74;94.45;94530.88;5074234;28;20799;-77
2021/04/14 03:37:41;;;;;;;5.20;3.60;;;;;;;9.75;94.78;94524.66;5073920;28;20454;-78
2021/04/14 03:40:09;;;;;;;6.27;3.80;;;;;;;9.75;94.42;94523.84;5074224;28;20446;-77
2021/04/14 03:42:36;;;;;;;3.67;2.63;;;;;;;9.71;94.69;94530.31;5038550;28;20445;-78
2021/04/14 03:45:10;;;;;;;5.47;2.77;;;;;;;9.73;94.21;94529.22;5073550;28;20958;-78
2021/04/14 03:47:37;;;;;;;2.00;1.90;;;;;;;9.74;93.99;94525.63;5073686;28;20887;-77
2021/04/14 03:50:04;;;;;;;2.80;2.20;;;;;;;9.74;94.39;94530.03;5054787;28;20442;-77
2021/04/14 03:52:31;;;;;;;2.17;2.07;;;;;;;9.74;93.29;94535.28;5071553;28;20450;-77
2021/04/14 03:54:57;;;;;;;2.43;2.23;;;;;;;9.75;93.27;94527.28;5073197;28;20490;-77
2021/04/14 03:57:24;;;;;;;3.93;2.30;;;;;;;9.78;93.12;94532.25;5073939;28;20503;-77
2021/04/14 03:59:51;;;;;;;2.77;1.90;;;;;;;9.81;93.91;94534.59;5073843;28;20492;-76
2021/04/14 04:02:17;;;;;;;2.70;2.40;;;;;;;9.84;93.32;94536.97;5073493;28;20846;-77
2021/04/14 04:04:43;;;;;;;3.13;2.60;;;;;;;9.87;93.22;94541.13;5073546;28;20461;-77
2021/04/14 04:07:10;;;;;;;6.13;2.47;;;;;;;9.88;93.07;94543.59;5073540;28;20882;-77
2021/04/14 04:09:36;;;;;;;3.20;2.90;;;;;;;9.86;92.48;94529.81;5054880;28;20462;-77
2021/04/14 04:12:07;;;;;;;2.50;2.30;;;;;;;9.87;92.44;94528.84;5073508;28;20443;-77
2021/04/14 04:14:35;;;;;;;2.33;2.03;;;;;;;9.77;91.71;94535.84;5071400;28;20482;-78
2021/04/14 04:17:02;;;;;;;2.17;2.07;;;;;;;9.80;92.51;94535.56;5073740;28;20774;-77
2021/04/14 04:19:28;;;;;;;2.07;1.87;;;;;;;9.96;92.95;94542.09;5073558;28;20830;-77
2021/04/14 04:21:54;;;;;;;4.50;2.13;;;;;;;10.65;93.04;94544.66;5073647;28;20446;-77
2021/04/14 04:24:21;;;;;;;2.67;2.47;;;;;;;11.73;87.93;94556.41;5073201;28;20458;-77
2021/04/14 04:26:47;;;;;;;3.43;3.13;;;;;;;12.88;81.91;94556.66;5073783;28;20444;-77
2021/04/14 04:29:14;;;;;;;3.30;2.90;;;;;;;13.84;76.71;94557.47;5073183;28;20442;-78
2021/04/14 04:31:41;;;;;;;2.50;2.30;;;;;;;14.62;73.38;94567.81;5073144;28;20966;-77
2021/04/14 04:34:07;;;;;;;2.53;2.20;;;;;;;15.30;70.23;94572.78;5073538;28;20492;-77
2021/04/14 04:36:33;;;;;;;4.10;1.70;;;;;;;16.00;66.30;94575.66;5072984;28;20740;-77
2021/04/14 04:39:00;;;;;;;1.70;1.60;;;;;;;16.51;63.07;94570.81;5070621;28;20450;-77
2021/04/14 04:41:26;;;;;;;3.50;3.20;;;;;;;16.76;63.02;94570.69;5073202;28;20974;-77
2021/04/14 04:43:52;;;;;;;4.70;4.30;;;;;;;17.20;61.50;94581.47;5072994;28;20483;-77
2021/04/14 04:46:19;;;;;;;4.53;4.13;;;;;;;17.71;59.29;94571.94;5073304;28;20444;-77
2021/04/14 04:48:46;;;;;;;3.10;2.90;;;;;;;17.83;58.28;94567.81;5072762;28;20460;-77
2021/04/14 04:51:12;;;;;;;291.10;172.43;;;;;;;18.09;66.70;94561.22;5073029;28;20449;-79
2021/04/14 04:53:39;;;;;;;65.43;44.50;;;;;;;18.47;61.64;94577.84;5072104;28;20453;-78
2021/04/14 04:56:06;;;;;;;5.00;4.60;;;;;;;18.75;54.24;94570.03;5073646;28;21189;-77
2021/04/14 04:58:32;;;;;;;5.03;4.60;;;;;;;18.74;55.71;94568.38;5072756;28;20449;-77
2021/04/14 05:00:58;;;;;;;6.07;5.47;;;;;;;18.24;55.75;94578.00;5072410;28;20452;-76
2021/04/14 05:03:28;;;;;;;5.50;4.13;;;;;;;17.56;57.00;94582.47;5071929;28;20444;-77
2021/04/14 05:05:56;;;;;;;4.63;3.87;;;;;;;16.98;59.07;94580.47;5072968;28;20444;-77
2021/04/14 05:08:22;;;;;;;5.27;4.13;;;;;;;16.52;62.92;94585.72;5075660;28;20456;-76
2021/04/14 05:10:49;;;;;;;6.77;3.50;;;;;;;15.96;nan;94584.13;5075931;28;20453;-80
2021/04/14 05:13:15;;;;;;;9.97;6.90;;;;;;;15.62;76.70;94579.09;5075612;28;20853;-78
2021/04/14 05:15:42;;;;;;;11.43;7.80;;;;;;;15.57;67.60;94584.00;5075640;28;20441;-78
2021/04/14 05:18:09;;;;;;;12.13;8.37;;;;;;;15.13;65.07;94587.03;5023367;28;20439;-80
2021/04/14 05:20:36;;;;;;;10.20;7.63;;;;;;;14.07;69.33;94588.56;5075893;28;20509;-79
2021/04/14 05:23:04;;;;;;;5.10;4.17;;;;;;;13.37;73.55;94591.31;5075788;28;20448;-79
2021/04/14 05:25:32;;;;;;;7.20;5.47;;;;;;;12.84;73.88;94599.25;5076270;28;20557;-80
2021/04/14 05:28:03;;;;;;;5.60;5.13;;;;;;;12.03;76.55;94596.59;5077050;28;20440;-80
2021/04/14 05:30:30;;;;;;;6.73;6.00;;;;;;;11.55;80.48;94584.41;5058522;28;20448;-80
2021/04/14 05:32:57;;;;;;;7.57;6.90;;;;;;;11.24;82.25;94583.00;5057804;28;20490;-80
2021/04/14 05:35:24;;;;;;;8.53;6.27;;;;;;;10.95;85.63;94589.13;5057973;28;20474;-80
2021/04/14 05:37:50;;;;;;;7.53;6.73;;;;;;;10.66;87.28;94588.28;5076440;28;20807;-80
2021/04/14 05:40:18;;;;;;;6.07;5.60;;;;;;;10.31;87.10;94581.78;5076762;28;20431;-80
2021/04/14 05:42:46;;;;;;;6.70;5.87;;;;;;;9.92;87.41;94591.34;5076124;28;20485;-82
2021/04/14 05:45:16;;;;;;;11.13;7.43;;;;;;;9.54;88.52;94592.84;5076597;28;20465;-83
2021/04/14 05:47:42;;;;;;;9.00;8.20;;;;;;;9.23;89.80;94602.47;5076231;28;20476;-79
2021/04/14 05:50:13;;;;;;;10.13;8.17;;;;;;;9.08;90.13;94601.13;5076845;28;20536;-81
2021/04/14 05:52:39;;;;;;;10.40;7.60;;;;;;;9.14;91.05;94605.84;5076572;28;20459;-80
2021/04/14 05:55:07;;;;;;;14.63;10.70;;;;;;;9.04;91.58;94614.63;5076141;28;20538;-80
2021/04/14 05:57:35;;;;;;;10.63;7.53;;;;;;;8.99;92.07;94612.38;5076516;28;20441;-81
2021/04/14 06:00:01;;;;;;;8.47;7.10;;;;;;;8.94;91.34;94617.13;5076517;28;20430;-81
2021/04/14 06:02:27;;;;;;;10.80;9.70;;;;;;;8.92;91.69;94616.44;5076278;28;20445;-82
2021/04/14 06:04:54;;;;;;;12.43;9.10;;;;;;;8.89;92.92;94624.53;5075061;28;21079;-81
2021/04/14 06:07:20;;;;;;;10.57;8.43;;;;;;;8.67;92.74;94625.47;5074874;28;20446;-81
2021/04/14 06:09:47;;;;;;;5.50;5.00;;;;;;;8.56;91.87;94615.06;5075235;28;20835;-82
2021/04/14 06:12:14;;;;;;;8.47;6.50;;;;;;;8.34;90.39;94632.47;5075080;28;20453;-81
2021/04/14 06:14:41;;;;;;;7.20;5.20;;;;;;;8.21;92.45;94636.16;5078994;28;21015;-80
2021/04/14 06:17:08;;;;;;;7.10;5.20;;;;;;;8.11;93.65;94637.88;5081871;28;20524;-80
2021/04/14 06:19:35;;;;;;;7.07;6.17;;;;;;;7.93;92.43;94627.91;5077467;28;20524;-81
2021/04/14 06:22:01;;;;;;;5.90;4.97;;;;;;;7.83;92.75;94640.03;5074340;28;20811;-81
2021/04/14 06:24:28;;;;;;;7.13;5.57;;;;;;;7.89;92.63;94638.72;5039140;28;20863;-81
2021/04/14 06:26:57;;;;;;;4.53;4.13;;;;;;;7.82;93.08;94632.31;5074207;28;20505;-81
2021/04/14 06:29:24;;;;;;;8.30;3.90;;;;;;;7.80;92.26;94642.84;5039834;28;20467;-81
2021/04/14 06:31:52;;;;;;;4.07;3.67;;;;;;;7.70;92.00;94653.19;5074666;28;20479;-81
2021/04/14 06:34:21;;;;;;;5.80;4.67;;;;;;;7.55;92.31;94649.16;5074160;28;20515;-81
2021/04/14 06:36:49;;;;;;;5.10;3.90;;;;;;;7.61;92.16;94660.91;5074306;28;20494;-81
2021/04/14 06:39:16;;;;;;;5.10;4.30;;;;;;;7.68;91.37;94669.94;5073935;28;20464;-80
2021/04/14 06:41:59;;;;;;;4.10;3.53;;;;;;;7.73;91.52;94665.19;5074404;28;20445;-80
2021/04/14 06:44:47;;;;;;;5.33;3.97;;;;;;;7.76;92.05;94664.94;5072158;28;20476;-81
2021/04/14 06:47:24;;;;;;;5.10;4.63;;;;;;;7.83;90.36;94676.59;5074232;28;20456;-81
2021/04/14 06:49:57;;;;;;;4.40;4.10;;;;;;;7.85;90.16;94681.69;5073647;28;20498;-80
2021/04/14 06:52:29;;;;;;;4.43;4.03;;;;;;;7.86;89.44;94684.19;5074147;28;20449;-80
2021/04/14 06:55:00;;;;;;;4.70;4.30;;;;;;;7.88;89.59;94692.75;5075356;28;20484;-81
2021/04/14 06:57:30;;;;;;;9.80;4.23;;;;;;;7.81;88.96;94691.56;5074325;28;20437;-82
2021/04/14 07:00:03;;;;;;;4.77;4.27;;;;;;;7.91;89.26;94702.94;5075075;28;20451;-81
2021/04/14 07:02:38;;;;;;;4.67;4.00;;;;;;;7.86;88.42;94694.66;5075989;28;20445;-81
2021/04/14 07:05:09;;;;;;;4.63;4.30;;;;;;;7.81;86.85;94694.19;5076571;28;20475;-81
2021/04/14 07:07:40;;;;;;;7.23;6.43;;;;;;;7.93;87.78;94706.28;5075956;28;20550;-81
2021/04/14 07:10:12;;;;;;;5.53;4.93;;;;;;;7.91;87.48;94709.97;5058143;28;20486;-79
2021/04/14 07:12:38;;;;;;;4.80;4.40;;;;;;;7.97;87.23;94712.09;5077051;28;20476;-80
2021/04/14 07:15:06;;;;;;;7.27;4.00;;;;;;;8.02;86.54;94710.78;5075656;28;20484;-81
2021/04/14 07:17:48;;;;;;;4.17;3.63;;;;;;;8.01;86.16;94709.13;5074918;28;20514;-81
2021/04/14 07:20:27;;;;;;;4.37;3.50;;;;;;;7.81;85.70;94717.69;5077561;28;20511;-81
2021/04/14 07:23:06;;;;;;;3.90;3.60;;;;;;;7.81;87.34;94706.41;5075224;28;20988;-80
2021/04/14 07:25:39;;;;;;;4.47;4.07;;;;;;;7.81;87.17;94717.69;5076766;28;20524;-79
2021/04/14 07:28:21;;;;;;;3.90;3.60;;;;;;;7.85;86.35;94724.34;5070677;28;20448;-79
2021/04/14 07:30:53;;;;;;;5.17;4.00;;;;;;;7.86;85.42;94730.38;5066025;28;20437;-80
2021/04/14 07:33:27;;;;;;;5.93;5.27;;;;;;;7.91;85.10;94726.47;5067756;28;20844;-81
2021/04/14 07:36:00;;;;;;;3.60;3.40;;;;;;;7.66;84.60;94730.13;5069409;28;20444;-81
2021/04/14 07:38:39;;;;;;;3.53;3.33;;;;;;;7.52;85.83;94732.09;5074745;28;20448;-81
2021/04/14 07:41:16;;;;;;;4.03;3.73;;;;;;;7.44;85.84;94730.91;5074388;28;20444;-79
2021/04/14 07:43:52;;;;;;;4.67;4.17;;;;;;;7.41;86.42;94719.84;5073835;28;20484;-82
2021/04/14 07:46:20;;;;;;;4.63;4.23;;;;;;;7.46;85.97;94738.63;5060742;28;20443;-82
2021/04/14 07:48:50;;;;;;;5.23;4.63;;;;;;;7.47;84.58;94735.88;5075117;28;20492;-81
2021/04/14 07:51:18;;;;;;;3.97;3.67;;;;;;;7.34;84.33;94749.97;5074436;28;20444;-82
2021/04/14 07:53:57;;;;;;;5.80;4.57;;;;;;;7.41;84.31;94741.56;5074498;28;20480;-86
2021/04/14 07:56:23;;;;;;;4.37;3.97;;;;;;;7.54;85.20;94745.88;5075018;28;22026;-84
2021/04/14 07:58:54;;;;;;;6.13;4.17;;;;;;;7.54;82.67;94743.28;5075038;28;20433;-84
2021/04/14 08:01:23;;;;;;;5.93;4.17;;;;;;;7.38;83.21;94751.41;5074191;28;20448;-85
2021/04/14 08:03:52;;;;;;;5.10;3.43;;;;;;;7.29;82.58;94745.09;5074746;28;20806;-85
2021/04/14 08:06:25;;;;;;;4.03;3.73;;;;;;;7.33;83.45;94740.50;5076227;28;20440;-83
2021/04/14 08:08:51;;;;;;;5.93;3.80;;;;;;;7.31;82.69;94751.03;5040688;28;20433;-83
2021/04/14 08:11:29;;;;;;;3.50;3.20;;;;;;;7.33;82.07;94751.75;5074442;28;20476;-83
2021/04/14 08:14:09;;;;;;;3.43;3.20;;;;;;;7.43;82.37;94757.94;5076057;28;20985;-80
2021/04/14 08:16:40;;;;;;;4.77;3.20;;;;;;;7.47;81.41;94750.72;5074544;28;20451;-81
2021/04/14 08:19:12;;;;;;;4.00;3.00;;;;;;;7.61;83.05;94752.31;5074742;28;20531;-81
2021/04/14 08:21:52;;;;;;;3.80;2.97;;;;;;;7.70;80.62;94751.59;5075153;28;20924;-82
2021/04/14 08:24:26;;;;;;;4.07;3.10;;;;;;;7.92;83.49;94742.97;5076839;28;20451;-83
2021/04/14 08:26:54;;;;;;;4.10;3.50;;;;;;;8.08;80.48;94762.56;5074271;28;20448;-83
2021/04/14 08:29:21;;;;;;;10.00;3.13;;;;;;;8.02;79.93;94755.19;5075925;28;20452;-83
2021/04/14 08:31:49;;;;;;;3.93;2.97;;;;;;;7.91;80.34;94751.75;5075982;28;20443;-85
2021/04/14 08:34:21;;;;;;;3.63;3.33;;;;;;;7.82;80.23;94750.69;5075251;28;20872;-82
2021/04/14 08:36:52;;;;;;;3.87;3.57;;;;;;;8.11;85.69;94745.84;5074716;28;20514;-82
2021/04/14 08:39:23;;;;;;;4.20;3.80;;;;;;;8.08;80.35;94740.81;5073677;28;20501;-82
2021/04/14 08:41:50;;;;;;;3.13;2.60;;;;;;;8.08;80.87;94740.81;5076262;28;20432;-81
2021/04/14 08:44:31;;;;;;;3.37;2.83;;;;;;;8.07;80.65;94734.75;5066824;28;20487;-81
2021/04/14 08:47:08;;;;;;;3.10;2.90;;;;;;;8.09;79.43;94732.03;5079147;28;20446;-81
2021/04/14 08:49:37;;;;;;;6.80;3.83;;;;;;;8.30;80.11;94732.97;5077808;28;20942;-81
2021/04/14 08:52:05;;;;;;;3.57;3.27;;;;;;;8.52;80.10;94740.00;5075568;28;20483;-83
2021/04/14 08:54:35;;;;;;;4.23;3.77;;;;;;;8.61;76.94;94739.25;5077171;28;20467;-81
2021/04/14 08:57:03;;;;;;;7.80;3.97;;;;;;;8.72;77.10;94740.22;5077829;28;20471;-80
2021/04/14 08:59:30;;;;;;;6.60;3.73;;;;;;;8.80;77.52;94732.56;5077610;28;20916;-82
2021/04/14 09:01:56;;;;;;;4.33;3.70;;;;;;;8.91;77.67;94740.38;4993163;28;20482;-82
2021/04/14 09:04:23;;;;;;;4.40;3.50;;;;;;;8.85;75.16;94733.03;5078260;28;20455;-81
2021/04/14 09:06:53;;;;;;;9.80;3.97;;;;;;;8.78;75.54;94740.56;5078897;28;20498;-82
2021/04/14 09:09:23;;;;;;;6.50;3.60;;;;;;;8.79;74.79;94739.59;5077268;28;20796;-79
2021/04/14 09:12:01;;;;;;;7.03;3.60;;;;;;;8.72;75.47;94741.03;5077118;28;20440;-82
2021/04/14 09:14:30;;;;;;;4.43;3.47;;;;;;;8.72;75.14;94737.59;5076949;28;20827;-82
2021/04/14 09:16:58;;;;;;;6.97;3.50;;;;;;;8.81;76.70;94739.47;5076896;28;20439;-79
2021/04/14 09:19:29;;;;;;;8.90;5.57;;;;;;;8.92;76.75;94734.19;5076877;28;20465;-79
2021/04/14 09:22:01;;;;;;;6.00;5.40;;;;;;;8.95;76.00;94728.72;5064758;28;20588;-79
2021/04/14 09:24:33;;;;;;;12.00;7.17;;;;;;;8.96;74.69;94739.06;5056701;28;20773;-79
2021/04/14 09:27:02;;;;;;;9.70;5.40;;;;;;;8.87;73.87;94745.03;5056928;28;20452;-79
2021/04/14 09:29:32;;;;;;;5.70;4.53;;;;;;;8.80;73.27;94737.81;5056677;28;20457;-79
2021/04/14 09:32:08;;;;;;;8.30;5.23;;;;;;;8.67;74.89;94744.03;5057109;28;20442;-79
2021/04/14 09:34:37;;;;;;;5.03;3.50;;;;;;;8.65;75.64;94735.44;5056672;28;20481;-80
2021/04/14 09:37:08;;;;;;;8.87;4.73;;;;;;;8.75;75.44;94739.97;5056878;28;20547;-79
2021/04/14 09:39:41;;;;;;;5.40;4.60;;;;;;;8.81;73.88;94737.69;5056327;28;20449;-79
2021/04/14 09:42:16;;;;;;;9.00;5.77;;;;;;;8.71;72.14;94736.78;5056557;28;20473;-79
2021/04/14 09:44:45;;;;;;;11.17;6.73;;;;;;;8.82;73.09;94739.34;5035808;28;20465;-79
2021/04/14 09:47:32;;;;;;;9.23;6.63;;;;;;;8.58;71.95;94739.50;5036077;28;20434;-79
2021/04/14 09:50:00;;;;;;;7.27;6.20;;;;;;;8.44;72.41;94737.16;5055203;28;20442;-79
2021/04/14 09:52:31;;;;;;;11.13;8.10;;;;;;;8.41;73.85;94733.97;5054103;28;20449;-79
2021/04/14 09:55:07;;;;;;;5.83;5.23;;;;;;;8.41;73.55;94737.41;5054927;28;20546;-79
2021/04/14 09:57:38;;;;;;;4.33;3.93;;;;;;;8.44;74.07;94736.34;5055106;28;20578;-79
2021/04/14 10:00:06;;;;;;;8.07;5.13;;;;;;;8.55;73.38;94723.25;5068862;28;20457;-79
2021/04/14 10:02:38;;;;;;;5.40;4.83;;;;;;;8.72;73.84;94732.38;5019244;28;20935;-79
2021/04/14 10:05:05;;;;;;;4.87;4.47;;;;;;;8.89;73.52;94731.81;5054580;28;20453;-78
2021/04/14 10:07:35;;;;;;;8.07;5.00;;;;;;;8.82;72.96;94728.06;5054845;28;20456;-77
2021/04/14 10:10:09;;;;;;;9.70;4.50;;;;;;;8.84;72.06;94719.13;5054837;28;20462;-78
2021/04/14 10:12:36;;;;;;;6.20;4.17;;;;;;;8.89;72.70;94726.59;5069311;28;20454;-78
2021/04/14 10:15:05;;;;;;;3.50;3.30;;;;;;;8.95;73.04;94723.47;5054594;28;20479;-78
2021/04/14 10:17:34;;;;;;;6.80;3.80;;;;;;;8.95;72.73;94711.22;5069374;28;20450;-79
2021/04/14 10:20:18;;;;;;;3.20;2.90;;;;;;;9.12;73.26;94716.88;5054315;28;20540;-79
2021/04/14 10:22:48;;;;;;;7.43;4.00;;;;;;;9.23;72.85;94719.44;5054582;28;20804;-79
2021/04/14 10:25:20;;;;;;;4.10;3.90;;;;;;;9.45;72.62;94715.88;5054791;28;20458;-80
2021/04/14 10:27:48;;;;;;;6.30;4.97;;;;;;;9.56;69.83;94726.31;5054144;28;20478;-80
2021/04/14 10:30:21;;;;;;;5.10;4.60;;;;;;;9.44;70.26;94727.31;5053874;28;20473;-80
2021/04/14 10:32:48;;;;;;;6.40;3.80;;;;;;;9.45;69.02;94734.22;5054251;28;20435;-80
2021/04/14 10:35:19;;;;;;;6.70;5.20;;;;;;;9.44;69.48;94727.31;5054087;28;20489;-78
2021/04/14 10:37:49;;;;;;;5.90;5.30;;;;;;;9.43;69.26;94731.72;5053139;28;20444;-78
2021/04/14 10:40:20;;;;;;;8.43;5.57;;;;;;;9.41;68.75;94730.19;5053944;28;20596;-78
2021/04/14 10:42:47;;;;;;;7.23;5.30;;;;;;;9.48;68.76;94733.97;5054044;28;20455;-77
2021/04/14 10:45:15;;;;;;;4.80;4.40;;;;;;;9.45;67.54;94729.81;5053884;28;20485;-78
2021/04/14 10:47:44;;;;;;;13.57;5.13;;;;;;;9.46;70.94;94722.78;5068174;28;20443;-78
2021/04/14 10:50:18;;;;;;;7.70;4.80;;;;;;;9.37;69.35;94721.75;5054232;28;20665;-78
2021/04/14 10:52:48;;;;;;;7.37;5.20;;;;;;;9.26;70.58;94719.22;5053742;28;20442;-78
2021/04/14 10:55:18;;;;;;;5.43;4.93;;;;;;;9.19;70.57;94724.09;5053473;28;20832;-77
2021/04/14 10:57:48;;;;;;;6.03;4.90;;;;;;;9.30;75.33;94710.97;5054257;28;20449;-78
2021/04/14 11:00:23;;;;;;;8.70;5.30;;;;;;;9.36;72.61;94719.28;5054715;28;20504;-78
2021/04/14 11:02:51;;;;;;;6.80;5.00;;;;;;;9.46;71.22;94722.78;5054229;28;20446;-78
2021/04/14 11:05:21;;;;;;;5.30;4.77;;;;;;;9.46;70.24;94718.38;5054266;28;20450;-78
2021/04/14 11:07:51;;;;;;;5.30;4.90;;;;;;;9.35;69.90;94702.72;5054572;28;20860;-78
2021/04/14 11:10:21;;;;;;;5.53;5.03;;;;;;;9.26;68.92;94717.44;5054276;28;20914;-77
2021/04/14 11:12:49;;;;;;;7.93;5.20;;;;;;;9.34;68.76;94723.81;5055040;28;20853;-79
2021/04/14 11:15:19;;;;;;;6.37;5.70;;;;;;;9.44;70.31;94709.81;5054796;28;20490;-80
2021/04/14 11:17:54;;;;;;;9.33;6.03;;;;;;;9.48;69.24;94705.16;5052511;28;20457;-79
2021/04/14 11:20:24;;;;;;;5.80;4.70;;;;;;;9.46;69.34;94718.38;5054730;28;20435;-79
2021/04/14 11:22:53;;;;;;;5.87;5.17;;;;;;;9.53;69.24;94718.69;5054383;28;20454;-79
2021/04/14 11:25:25;;;;;;;5.40;5.00;;;;;;;9.65;68.37;94722.91;5054478;28;20451;-80
2021/04/14 11:27:59;;;;;;;6.70;6.07;;;;;;;9.65;68.79;94724.72;5054340;28;20803;-80
2021/04/14 11:30:26;;;;;;;6.80;4.50;;;;;;;9.71;68.87;94722.41;5054142;28;20534;-80
2021/04/14 11:32:56;;;;;;;5.27;4.67;;;;;;;9.55;68.57;94704.53;5054145;28;20431;-79
2021/04/14 11:35:39;;;;;;;5.27;4.77;;;;;;;9.60;69.57;94710.22;5053710;28;21075;-79
2021/04/14 11:38:06;;;;;;;10.83;6.20;;;;;;;9.73;70.12;94710.00;5057708;28;20469;-77
2021/04/14 11:40:40;;;;;;;7.60;5.23;;;;;;;9.61;69.59;94713.66;5054685;28;20451;-79
2021/04/14 11:43:23;;;;;;;9.20;5.70;;;;;;;9.54;69.22;94707.25;5054191;28;20454;-79
2021/04/14 11:45:56;;;;;;;4.87;4.43;;;;;;;9.47;68.81;94704.31;5053689;28;20470;-80
2021/04/14 11:48:31;;;;;;;5.70;5.10;;;;;;;9.55;69.12;94708.94;5053695;28;20923;-79